Time;durP1;ratioP1;P1;durP2;ratioP2;P2;SDS_P1;SDS_P2;PMS_P1;PMS_P2;Temp;Humidity;BMP_temperature;BMP_pressure;BME280_temperature;BME280_humidity;BME280_pressure;Samples;Min_cycle;Max_cycle;Signal;HPM_P1;HPM_P2
2021/05/31 00:01:24;;;;;;;17.15;11.38;;;;;;;-142.75;65.31;78153.25;5033949;28;20434;-76
2021/05/31 00:03:49;;;;;;;16.13;11.85;;;;;;;-142.75;65.63;78157.19;5033599;28;20600;-75
2021/05/31 00:06:14;;;;;;;18.13;10.90;;;;;;;-142.75;65.52;78165.06;5014485;28;20021;-75
2021/05/31 00:08:39;;;;;;;15.98;10.07;;;;;;;-142.75;65.51;78176.88;5031820;28;20021;-75
2021/05/31 00:11:05;;;;;;;16.00;10.38;;;;;;;-142.75;65.52;78180.81;5031571;28;20056;-76
2021/05/31 00:13:30;;;;;;;19.33;10.32;;;;;;;-142.75;65.55;78186.75;5031487;28;20041;-76
2021/05/31 00:15:55;;;;;;;18.42;11.23;;;;;;;-142.75;65.47;78200.53;5031575;28;20025;-76
2021/05/31 00:18:21;;;;;;;17.30;10.27;;;;;;;-142.75;65.60;78202.50;5032242;28;20025;-76
2021/05/31 00:20:47;;;;;;;17.50;10.93;;;;;;;-142.75;65.54;78210.38;5051219;28;20406;-75
2021/05/31 00:23:12;;;;;;;14.23;11.18;;;;;;;-142.75;65.77;78214.31;5046902;28;20029;-76
2021/05/31 00:25:38;;;;;;;14.77;10.18;;;;;;;-142.75;65.80;78216.28;5038593;28;20036;-76
2021/05/31 00:28:04;;;;;;;14.15;10.57;;;;;;;-142.75;65.78;78222.19;5058459;28;20104;-76
2021/05/31 00:30:29;;;;;;;16.27;10.98;;;;;;;-142.75;65.72;78226.13;5058777;28;20090;-76
2021/05/31 00:32:54;;;;;;;17.67;10.70;;;;;;;-142.75;65.80;78224.16;5057814;28;20025;-76
2021/05/31 00:35:20;;;;;;;15.60;10.18;;;;;;;-142.75;65.71;78228.09;5058111;28;20035;-75
2021/05/31 00:37:47;;;;;;;14.45;10.43;;;;;;;-142.75;65.73;78234.00;5057451;28;20025;-76
2021/05/31 00:40:13;;;;;;;16.17;10.65;;;;;;;-142.75;65.80;78232.03;5057760;28;20047;-75
2021/05/31 00:42:39;;;;;;;15.32;11.23;;;;;;;-142.75;65.77;78239.91;5057698;28;20482;-76
2021/05/31 00:45:07;;;;;;;14.13;10.27;;;;;;;-142.75;65.80;78241.88;5058329;28;20120;-76
2021/05/31 00:47:32;;;;;;;17.60;12.02;;;;;;;-142.75;66.11;78245.81;5060239;28;20029;-74
2021/05/31 00:49:58;;;;;;;20.88;12.07;;;;;;;-142.75;66.53;78245.81;5059826;28;20029;-75
2021/05/31 00:52:23;;;;;;;17.63;10.85;;;;;;;-142.75;66.45;78247.78;5050697;28;20045;-75
2021/05/31 00:54:49;;;;;;;20.52;11.55;;;;;;;-142.75;66.08;78249.75;5040889;28;20116;-75
2021/05/31 00:57:15;;;;;;;16.75;12.10;;;;;;;-142.75;66.11;78243.84;5060332;28;20486;-75
2021/05/31 00:59:41;;;;;;;20.90;12.82;;;;;;;-142.75;66.05;78247.78;5060319;28;20035;-74
2021/05/31 01:02:07;;;;;;;18.33;11.13;;;;;;;-142.75;66.32;78253.69;5045561;28;20044;-75
2021/05/31 01:04:32;;;;;;;15.75;11.80;;;;;;;-142.75;66.07;78251.72;5059525;28;20402;-75
2021/05/31 01:07:02;;;;;;;20.70;11.88;;;;;;;-142.75;65.71;78259.59;5047505;28;20041;-75
2021/05/31 01:09:35;;;;;;;13.88;9.82;;;;;;;-142.75;65.67;78261.56;5041469;28;20028;-76
2021/05/31 01:12:07;;;;;;;17.17;11.00;;;;;;;-142.75;65.56;78259.59;5040383;28;20040;-75
2021/05/31 01:14:45;;;;;;;19.77;11.32;;;;;;;-142.75;65.74;78267.47;5057812;28;20021;-75
2021/05/31 01:17:21;;;;;;;14.00;10.88;;;;;;;-142.75;65.83;78267.47;5039410;28;20037;-75
2021/05/31 01:20:02;;;;;;;14.93;9.82;;;;;;;-142.75;65.93;78271.41;5021198;28;20487;-76
2021/05/31 01:22:33;;;;;;;14.70;10.40;;;;;;;-142.75;65.93;78275.34;5038586;28;20038;-75
2021/05/31 01:25:31;;;;;;;19.38;10.90;;;;;;;-142.75;66.24;78269.44;5038355;28;20442;-75
2021/05/31 01:28:21;;;;;;;18.00;10.88;;;;;;;-142.75;66.46;78251.72;5049876;28;20064;-76
2021/05/31 01:30:49;;;;;;;17.80;10.85;;;;;;;-142.75;66.08;78261.56;5056529;28;20490;-76
2021/05/31 01:33:17;;;;;;;14.75;10.15;;;;;;;-142.75;65.87;78281.25;5038820;28;20111;-75
2021/05/31 01:35:44;;;;;;;16.50;11.10;;;;;;;-142.75;66.19;78293.06;5036610;28;20029;-76
2021/05/31 01:38:10;;;;;;;17.60;11.35;;;;;;;-142.75;66.36;78306.88;5036211;28;20029;-75
2021/05/31 01:40:36;;;;;;;15.85;12.20;;;;;;;-142.75;66.55;78314.75;5032058;28;20029;-74
2021/05/31 01:43:04;;;;;;;17.30;11.77;;;;;;;-142.75;66.50;78314.75;5036467;28;20040;-75
2021/05/31 01:45:30;;;;;;;16.95;11.27;;;;;;;-142.75;66.51;78314.75;5035636;28;20052;-74
2021/05/31 01:47:57;;;;;;;15.48;11.30;;;;;;;-142.75;66.84;78302.94;5018046;28;20021;-75
2021/05/31 01:50:23;;;;;;;20.52;12.13;;;;;;;-142.75;66.92;78291.09;5051906;28;20024;-75
2021/05/31 01:52:48;;;;;;;13.70;10.40;;;;;;;-142.75;66.88;78287.16;5053464;28;20090;-75
2021/05/31 01:55:15;;;;;;;17.00;10.85;;;;;;;-142.75;66.39;78300.97;5053404;28;20446;-75
2021/05/31 01:57:43;;;;;;;18.45;11.35;;;;;;;-142.75;66.39;78310.81;5035003;28;20036;-75
2021/05/31 02:00:09;;;;;;;14.85;10.90;;;;;;;-142.75;66.43;78318.69;5052888;28;20035;-75
2021/05/31 02:02:35;;;;;;;15.07;11.20;;;;;;;-142.75;66.58;78326.56;5055052;28;20088;-74
2021/05/31 02:05:00;;;;;;;16.70;10.80;;;;;;;-142.75;66.64;78330.50;5055758;28;20029;-75
2021/05/31 02:07:26;;;;;;;15.20;11.43;;;;;;;-142.75;67.25;78326.56;5023666;28;20089;-74
2021/05/31 02:09:51;;;;;;;21.65;12.45;;;;;;;-142.75;67.21;78322.63;5047454;28;20121;-74
2021/05/31 02:12:21;;;;;;;18.42;12.07;;;;;;;-142.75;66.92;78318.69;5043093;28;20057;-74
2021/05/31 02:14:58;;;;;;;19.42;11.65;;;;;;;-142.75;67.19;78304.91;5036878;28;20029;-75
2021/05/31 02:17:58;;;;;;;19.02;11.32;;;;;;;-142.75;67.03;78299.00;5029652;28;20121;-74
2021/05/31 02:20:25;;;;;;;19.80;11.85;;;;;;;-142.75;66.93;78297.00;5048904;28;20067;-74
2021/05/31 02:22:57;;;;;;;18.35;12.02;;;;;;;-142.75;66.78;78297.00;5034357;28;20418;-74
2021/05/31 02:25:23;;;;;;;21.10;11.77;;;;;;;-142.75;66.54;78295.06;5046649;28;20029;-74
2021/05/31 02:27:50;;;;;;;18.67;12.45;;;;;;;-142.75;66.90;78285.19;5048312;22;20521;-72
2021/05/31 02:30:18;;;;;;;20.65;11.73;;;;;;;-142.75;66.70;78285.19;5012993;28;20032;-74
2021/05/31 02:33:01;;;;;;;19.40;11.95;;;;;;;-142.75;66.43;78291.09;5031732;28;20084;-74
2021/05/31 02:35:28;;;;;;;17.60;12.60;;;;;;;-142.75;66.55;78297.00;5013774;28;20039;-75
2021/05/31 02:37:54;;;;;;;14.45;11.55;;;;;;;-142.75;66.67;78308.84;5014118;28;20022;-72
2021/05/31 02:40:20;;;;;;;15.82;11.77;;;;;;;-142.75;66.85;78302.94;5014135;28;20083;-74
2021/05/31 02:42:48;;;;;;;17.92;10.90;;;;;;;-142.75;66.66;78330.50;5031524;28;20064;-74
2021/05/31 02:45:15;;;;;;;17.88;11.20;;;;;;;-142.75;66.65;78342.31;5013992;28;20029;-74
2021/05/31 02:47:41;;;;;;;17.88;11.57;;;;;;;-142.75;66.81;78352.16;5048926;28;20108;-74
2021/05/31 02:50:07;;;;;;;18.75;12.18;;;;;;;-142.75;66.90;78363.97;5051174;28;20128;-74
2021/05/31 02:52:33;;;;;;;17.50;12.23;;;;;;;-142.75;67.18;78365.94;5033361;28;20408;-74
2021/05/31 02:54:58;;;;;;;19.80;12.63;;;;;;;-142.75;67.25;78367.91;5033386;28;20039;-75
2021/05/31 02:57:24;;;;;;;17.02;11.73;;;;;;;-142.75;67.17;78365.94;5051481;28;20067;-73
2021/05/31 02:59:51;;;;;;;17.80;12.32;;;;;;;-142.75;67.26;78363.97;5051043;28;20060;-75
2021/05/31 03:02:16;;;;;;;20.85;11.60;;;;;;;-142.75;67.42;78363.97;5051164;28;20024;-75
2021/05/31 03:04:42;;;;;;;19.30;12.73;;;;;;;-142.75;67.42;78354.13;5051151;28;20024;-74
2021/05/31 03:07:07;;;;;;;19.27;12.80;;;;;;;-142.75;67.85;78348.22;5032355;28;20027;-75
2021/05/31 03:09:32;;;;;;;16.25;12.52;;;;;;;-142.75;68.06;78330.50;5033367;28;20032;-74
2021/05/31 03:11:57;;;;;;;23.50;12.57;;;;;;;-142.75;68.14;78322.63;5050682;28;20029;-74
2021/05/31 03:14:23;;;;;;;19.42;13.73;;;;;;;-142.75;67.84;78322.63;5051043;28;20025;-74
2021/05/31 03:16:48;;;;;;;19.75;12.98;;;;;;;-142.75;68.12;78310.81;5032917;28;20108;-75
2021/05/31 03:19:14;;;;;;;20.77;12.52;;;;;;;-142.75;68.09;78306.88;5050655;28;20086;-74
2021/05/31 03:21:39;;;;;;;25.52;13.02;;;;;;;-142.75;67.95;78306.88;5050969;28;20509;-75
2021/05/31 03:24:05;;;;;;;20.70;12.95;;;;;;;-142.75;67.70;78312.78;5050724;28;20064;-74
2021/05/31 03:26:30;;;;;;;20.10;13.50;;;;;;;-142.75;67.57;78314.75;5050565;28;20025;-74
2021/05/31 03:28:55;;;;;;;24.23;13.30;;;;;;;-142.75;67.63;78300.97;5050778;28;20100;-74
2021/05/31 03:31:21;;;;;;;20.27;13.38;;;;;;;-142.75;67.38;78314.75;5050537;28;20032;-74
2021/05/31 03:33:46;;;;;;;25.13;13.25;;;;;;;-142.75;67.24;78326.56;5050581;28;20033;-74
2021/05/31 03:36:12;;;;;;;22.45;14.15;;;;;;;-142.75;67.27;78322.63;5028837;28;20036;-75
2021/05/31 03:38:37;;;;;;;21.58;13.10;;;;;;;-142.75;67.72;78314.75;5050200;28;20032;-75
2021/05/31 03:41:02;;;;;;;19.80;12.30;;;;;;;-142.75;67.44;78320.66;5037992;28;20033;-75
2021/05/31 03:43:28;;;;;;;21.95;13.32;;;;;;;-142.75;68.06;78299.00;5050193;28;20029;-75
2021/05/31 03:45:53;;;;;;;25.15;13.88;;;;;;;-142.75;68.02;78300.97;5050033;28;20075;-76
2021/05/31 03:48:19;;;;;;;24.83;14.20;;;;;;;-142.75;67.87;78300.97;5030272;28;20024;-76
2021/05/31 03:50:44;;;;;;;22.88;13.77;;;;;;;-142.75;67.86;78306.88;5015195;28;20029;-75
2021/05/31 03:53:09;;;;;;;18.03;12.90;;;;;;;-142.75;67.75;78314.75;5026634;28;20029;-75
2021/05/31 03:55:35;;;;;;;19.67;13.30;;;;;;;-142.75;67.49;78318.69;5025832;28;20275;-76
2021/05/31 03:58:00;;;;;;;28.92;17.08;;;;;;;-142.75;68.09;78320.66;5032887;28;20036;-75
2021/05/31 04:00:27;;;;;;;24.50;15.27;;;;;;;-142.75;68.12;78316.72;5032620;28;20123;-76
2021/05/31 04:02:53;;;;;;;28.10;16.23;;;;;;;-142.75;68.33;78312.78;5033096;28;20399;-76
2021/05/31 04:05:18;;;;;;;26.90;16.25;;;;;;;-142.75;68.40;78306.88;5050555;28;20031;-74
2021/05/31 04:13:13;;;;;;;25.02;15.40;;;;;;;-142.75;68.34;78281.25;5031078;28;20498;-75
2021/05/31 04:15:38;;;;;;;;;;;;;;;-142.75;68.25;78277.31;5013199;28;20033;-75
2021/05/31 04:18:04;;;;;;;23.48;14.52;;;;;;;-142.75;68.21;78279.28;5012739;28;19913;-76
2021/05/31 04:20:30;;;;;;;20.63;14.50;;;;;;;-142.75;68.07;78273.38;5030550;28;20052;-76
2021/05/31 04:22:55;;;;;;;22.35;13.95;;;;;;;-142.75;67.79;78277.31;5032619;28;20482;-75
2021/05/31 04:25:21;;;;;;;25.60;15.67;;;;;;;-142.75;68.09;78267.47;5026183;28;20053;-74
2021/05/31 04:27:46;;;;;;;23.73;14.63;;;;;;;-142.75;68.00;78279.28;5012671;28;20282;-76
2021/05/31 04:30:12;;;;;;;22.17;13.82;;;;;;;-142.75;68.25;78269.44;5023322;28;20037;-75
2021/05/31 04:32:37;;;;;;;24.23;16.10;;;;;;;-142.75;68.11;78277.31;5049124;28;20021;-76
2021/05/31 04:35:03;;;;;;;24.88;14.95;;;;;;;-142.75;68.08;78267.47;5050364;28;20025;-76
2021/05/31 04:37:30;;;;;;;;;;;;;;;-142.75;68.27;78271.41;5050508;28;20025;-75
2021/05/31 04:39:56;;;;;;;21.48;13.82;;;;;;;-142.75;68.33;78267.47;5030537;28;19913;-75
2021/05/31 04:42:21;;;;;;;20.75;15.07;;;;;;;-142.75;68.00;78255.66;5012820;28;20495;-77
2021/05/31 04:44:46;;;;;;;25.77;14.88;;;;;;;-142.75;68.29;78228.09;5030476;28;20030;-75
2021/05/31 04:47:12;;;;;;;18.80;14.20;;;;;;;-142.75;68.18;78226.13;5030058;28;20083;-76
2021/05/31 04:49:37;;;;;;;22.77;15.05;;;;;;;-142.75;68.27;78218.25;5030372;28;20307;-74
2021/05/31 04:52:03;;;;;;;29.13;17.80;;;;;;;-142.75;68.14;78200.53;5012822;28;20031;-76
2021/05/31 04:54:28;;;;;;;28.42;16.73;;;;;;;-142.75;68.11;78190.69;5030343;28;20395;-76
2021/05/31 04:56:53;;;;;;;28.92;18.48;;;;;;;-142.75;68.14;78178.84;5012297;28;20426;-75
2021/05/31 04:59:19;;;;;;;30.13;16.58;;;;;;;-142.75;68.04;78172.94;5029059;28;20084;-74
2021/05/31 05:01:44;;;;;;;30.63;18.00;;;;;;;-142.75;68.09;78157.19;5030343;28;20100;-75
2021/05/31 05:04:09;;;;;;;34.05;20.50;;;;;;;-142.75;67.59;78145.38;5012441;28;20034;-73
2021/05/31 05:06:35;;;;;;;27.97;18.50;;;;;;;-142.75;67.79;78119.78;5029382;28;20022;-75
2021/05/31 05:09:00;;;;;;;36.58;19.52;;;;;;;-142.75;67.55;78113.88;5030355;28;20284;-75
2021/05/31 05:11:26;;;;;;;32.53;18.92;;;;;;;-142.75;66.98;78109.94;5031329;28;20082;-76
2021/05/31 05:13:52;;;;;;;31.80;19.42;;;;;;;-142.75;66.64;78098.13;5034030;28;20021;-75
2021/05/31 05:16:18;;;;;;;;;;;;;;;-142.75;66.79;78070.56;5016286;28;20071;-76
2021/05/31 05:18:45;;;;;;;31.00;17.88;;;;;;;-142.75;66.11;78046.91;5033988;28;19916;-75
2021/05/31 05:21:10;;;;;;;29.10;17.80;;;;;;;-142.75;66.14;78021.31;5016048;28;20025;-75
2021/05/31 05:23:36;;;;;;;29.92;18.20;;;;;;;-142.75;65.99;77991.78;5016068;28;20025;-75
2021/05/31 05:26:01;;;;;;;23.92;17.30;;;;;;;-142.75;64.28;77948.47;5015582;28;20052;-74
2021/05/31 05:28:26;;;;;;;26.77;16.65;;;;;;;-142.75;63.58;77901.19;5015996;28;20111;-75
2021/05/31 05:30:52;;;;;;;28.60;17.85;;;;;;;-142.75;62.33;77861.81;5015847;28;20029;-75
2021/05/31 05:33:18;;;;;;;28.38;17.13;;;;;;;-142.75;61.96;77855.91;5033610;28;20024;-75
2021/05/31 05:35:50;;;;;;;28.95;17.13;;;;;;;-142.75;62.04;77867.72;5033290;28;20101;-74
2021/05/31 05:48:30;;;;;;;28.73;16.15;;;;;;;-142.75;60.13;77692.47;5046757;28;20112;-74
2021/05/31 05:51:09;;;;;;;28.27;17.23;;;;;;;-142.75;59.17;77731.88;5021355;28;20773;-75
2021/05/31 05:53:39;;;;;;;25.48;18.00;;;;;;;-142.75;59.13;77692.47;5053000;28;20135;-76
2021/05/31 05:56:08;;;;;;;29.75;18.00;;;;;;;-142.75;59.05;77674.75;5052645;28;20475;-74
2021/05/31 05:58:33;;;;;;;29.23;17.67;;;;;;;-142.75;59.50;77613.72;5035287;28;20115;-74
2021/05/31 06:01:01;;;;;;;25.38;16.00;;;;;;;-142.75;56.81;77588.13;5041615;28;20153;-76
2021/05/31 06:03:27;;;;;;;25.80;17.33;;;;;;;-142.75;57.45;77554.66;5034505;28;20040;-75
2021/05/31 06:05:56;;;;;;;24.55;16.80;;;;;;;-142.75;56.79;77586.16;5040629;28;20033;-72
2021/05/31 06:08:22;;;;;;;27.50;16.02;;;;;;;-142.75;57.17;77511.34;5034842;28;20021;-75
2021/05/31 06:10:47;;;;;;;26.77;15.93;;;;;;;-142.75;56.10;77468.03;5032612;28;20116;-75
2021/05/31 06:13:13;;;;;;;;;;;;;;;-142.75;54.98;77450.28;5035025;28;20027;-77
2021/05/31 06:15:38;;;;;;;23.20;16.08;;;;;;;-142.75;54.29;77369.56;5034612;28;19916;-76
2021/05/31 06:18:04;;;;;;;;;;;;;;;-142.75;53.01;77294.75;5052914;28;20013;-75
2021/05/31 06:20:30;;;;;;;25.40;16.10;;;;;;;-142.75;53.05;77314.44;5052689;28;19923;-76
2021/05/31 06:22:55;;;;;;;20.90;14.65;;;;;;;-142.75;52.63;77401.06;5025055;28;20402;-77
2021/05/31 06:25:21;;;;;;;;;;;;;;;-142.75;52.77;77466.03;5029177;28;20025;-78
2021/05/31 06:27:46;;;;;;;23.85;16.30;;;;;;;-142.75;53.77;77497.56;5043709;28;19920;-76
2021/05/31 06:30:12;;;;;;;;;;;;;;;-142.75;53.56;77405.00;5053187;28;20171;-76
2021/05/31 06:32:38;;;;;;;22.05;14.80;;;;;;;-142.75;51.87;77290.81;5052424;28;19920;-77
2021/05/31 06:35:03;;;;;;;;;;;;;;;-142.75;50.90;77298.69;5034782;28;20440;-76
2021/05/31 06:37:31;;;;;;;24.63;15.02;;;;;;;-142.75;51.36;77361.69;5048489;28;19954;-76
2021/05/31 06:39:58;;;;;;;23.02;14.73;;;;;;;-142.75;51.37;77271.13;5051349;28;20032;-76
2021/05/31 06:42:23;;;;;;;25.17;15.80;;;;;;;-142.75;50.42;77119.53;5051628;28;20087;-75
2021/05/31 06:44:48;;;;;;;;;;;;;;;-142.75;48.81;77101.81;5039658;28;20033;-77
2021/05/31 06:47:13;;;;;;;25.83;14.90;;;;;;;-142.75;48.01;76973.84;5031203;28;20302;-77
2021/05/31 06:49:40;;;;;;;;;;;;;;;-142.75;46.19;76904.94;5014349;28;20021;-77
2021/05/31 06:52:05;;;;;;;24.13;13.93;;;;;;;-142.75;45.87;76924.63;5013927;28;20350;-76
2021/05/31 06:54:32;;;;;;;22.27;13.52;;;;;;;-142.75;44.31;76877.38;5031610;28;20056;-78
2021/05/31 06:56:58;;;;;;;18.95;14.50;;;;;;;-142.75;46.75;77030.94;5031070;28;20021;-77
2021/05/31 06:59:23;;;;;;;21.67;14.35;;;;;;;-142.75;46.75;76991.56;5033101;28;20033;-76
2021/05/31 07:01:49;;;;;;;19.35;13.50;;;;;;;-142.75;46.10;76853.75;5051155;28;20108;-77
2021/05/31 07:04:15;;;;;;;21.50;13.75;;;;;;;-142.75;44.07;76739.59;5051750;28;20063;-76
2021/05/31 07:06:41;;;;;;;18.98;13.60;;;;;;;-142.75;43.43;76875.41;5030438;28;20021;-79
2021/05/31 07:09:07;;;;;;;20.55;14.23;;;;;;;-142.75;46.54;77046.69;5018971;28;20032;-78
2021/05/31 07:11:32;;;;;;;;;;;;;;;-142.75;46.57;76993.53;5033642;28;20020;-74
2021/05/31 07:13:59;;;;;;;22.55;13.77;;;;;;;-142.75;45.43;76995.50;5033265;28;20005;-77
2021/05/31 07:16:28;;;;;;;23.00;14.55;;;;;;;-142.75;45.08;76916.75;5033311;28;20429;-76
2021/05/31 07:18:54;;;;;;;20.67;14.00;;;;;;;-142.75;45.79;76926.59;5025003;28;20018;-76
2021/05/31 07:21:19;;;;;;;18.17;13.15;;;;;;;-142.75;45.14;76997.47;5032549;28;20029;-77
2021/05/31 07:23:44;;;;;;;19.73;13.90;;;;;;;-142.75;45.98;76971.88;5025759;28;20049;-77
2021/05/31 07:26:10;;;;;;;;;;;;;;;-142.75;45.03;76971.88;5031994;28;20018;-77
2021/05/31 07:28:35;;;;;;;21.00;12.80;;;;;;;-142.75;44.90;76958.09;5049940;28;20378;-77
2021/05/31 07:31:01;;;;;;;20.83;13.75;;;;;;;-142.75;46.07;76932.50;5013878;28;20754;-77
2021/05/31 07:33:26;;;;;;;;;;;;;;;-142.75;43.19;76798.66;5031601;28;20414;-77
2021/05/31 07:35:53;;;;;;;20.13;12.70;;;;;;;-142.75;42.83;76838.00;5038298;28;20035;-76
2021/05/31 07:38:19;;;;;;;23.88;13.77;;;;;;;-142.75;43.75;76830.13;5032688;28;20107;-78
2021/05/31 07:40:44;;;;;;;19.13;13.27;;;;;;;-142.75;43.15;76861.63;5039364;28;20112;-78
2021/05/31 07:43:10;;;;;;;;;;;;;;;-142.75;44.39;76832.09;5021201;28;20072;-78
2021/05/31 07:45:35;;;;;;;18.45;13.10;;;;;;;-142.75;43.28;76723.84;5013250;28;20385;-76
2021/05/31 07:48:00;;;;;;;20.17;13.25;;;;;;;-142.75;41.88;76755.34;5042570;28;20021;-78
2021/05/31 07:50:26;;;;;;;18.20;12.15;;;;;;;-142.75;42.10;76753.38;5046273;28;20087;-77
2021/05/31 07:52:51;;;;;;;20.23;12.70;;;;;;;-142.75;43.12;76700.22;5035548;28;20383;-77
2021/05/31 07:55:17;;;;;;;16.92;11.57;;;;;;;-142.75;40.96;76605.72;5029737;28;20506;-76
2021/05/31 07:57:44;;;;;;;17.17;11.60;;;;;;;-142.75;40.52;76495.50;5024621;28;20021;-76
2021/05/31 08:00:13;;;;;;;22.08;12.27;;;;;;;-142.75;39.91;76436.44;5032953;28;20029;-76
2021/05/31 08:02:41;;;;;;;19.90;11.95;;;;;;;-142.75;40.36;76621.47;5024964;28;20483;-77
2021/05/31 08:05:07;;;;;;;17.02;11.70;;;;;;;-142.75;41.65;76597.84;5023036;28;20035;-77
2021/05/31 08:07:32;;;;;;;20.00;12.15;;;;;;;-142.75;40.78;76568.31;5038470;28;20534;-77
2021/05/31 08:09:57;;;;;;;16.45;10.63;;;;;;;-142.75;38.73;76483.69;5031628;28;20017;-77
2021/05/31 08:12:23;;;;;;;17.95;11.75;;;;;;;-142.75;39.86;76601.78;5046833;28;20098;-76
2021/05/31 08:14:48;;;;;;;16.92;11.85;;;;;;;-142.75;40.95;76499.44;5032229;28;20024;-76
2021/05/31 08:17:13;;;;;;;16.52;11.32;;;;;;;-142.75;38.69;76430.53;5050422;28;20029;-77
2021/05/31 08:19:39;;;;;;;20.80;12.13;;;;;;;-142.75;39.04;76422.66;5033195;28;20025;-77
2021/05/31 08:22:08;;;;;;;17.85;10.70;;;;;;;-142.75;38.06;76438.41;5026376;28;20117;-77
2021/05/31 08:24:34;;;;;;;17.48;11.23;;;;;;;-142.75;39.29;76261.25;5045943;28;20025;-78
2021/05/31 08:27:00;;;;;;;13.55;9.50;;;;;;;-142.75;37.15;76338.03;5055352;22;20040;-73
2021/05/31 08:29:25;;;;;;;15.23;9.98;;;;;;;-142.75;37.48;76397.06;5009476;28;20030;-73
2021/05/31 08:31:51;;;;;;;21.42;10.85;;;;;;;-142.75;40.16;76399.03;5010196;28;20049;-72
2021/05/31 08:34:17;;;;;;;16.90;10.00;;;;;;;-142.75;37.36;76158.91;5010966;28;20372;-73
2021/05/31 08:36:44;;;;;;;16.80;9.70;;;;;;;-142.75;33.59;76046.72;5010427;28;20491;-73
2021/05/31 08:39:11;;;;;;;17.60;9.55;;;;;;;-142.75;36.25;76277.00;4993123;28;20034;-73
2021/05/31 08:41:38;;;;;;;15.50;10.15;;;;;;;-142.75;36.01;76269.13;5010789;28;20056;-73
2021/05/31 08:44:04;;;;;;;16.08;9.60;;;;;;;-142.75;37.18;76239.59;4993051;28;20431;-73
2021/05/31 08:46:29;;;;;;;14.52;9.65;;;;;;;-142.75;36.12;76036.88;5013360;28;20088;-73
2021/05/31 08:48:56;;;;;;;17.90;9.63;;;;;;;-142.75;34.59;76129.38;5014544;28;20507;-73
2021/05/31 08:51:22;;;;;;;11.25;8.75;;;;;;;-142.75;35.41;76153.00;5014639;28;20026;-73
2021/05/31 08:53:47;;;;;;;16.08;8.18;;;;;;;-142.75;33.82;76172.69;4996807;28;20025;-73
2021/05/31 08:56:13;;;;;;;15.15;9.00;;;;;;;-142.75;34.92;76192.38;5014293;28;20071;-73
2021/05/31 08:58:38;;;;;;;14.02;7.93;;;;;;;-142.75;35.45;76125.44;5014333;28;20030;-73
2021/05/31 09:01:04;;;;;;;9.25;7.03;;;;;;;-142.75;33.56;76336.06;4996916;28;20381;-73
2021/05/31 09:03:30;;;;;;;11.00;7.47;;;;;;;-142.75;35.07;76363.59;5014415;28;20030;-71
2021/05/31 09:06:00;;;;;;;12.18;7.95;;;;;;;-142.75;35.26;76355.72;4996094;28;20484;-72
2021/05/31 09:08:26;;;;;;;12.80;8.05;;;;;;;-142.75;36.19;76219.91;5014156;28;20450;-71
2021/05/31 09:10:56;;;;;;;8.10;6.47;;;;;;;-142.75;33.15;76239.59;4996749;28;20025;-73
2021/05/31 09:13:32;;;;;;;12.07;6.93;;;;;;;-142.75;33.24;76257.31;5033049;28;20395;-73
2021/05/31 09:16:14;;;;;;;14.57;7.45;;;;;;;-142.75;33.68;76231.72;5033672;28;20485;-73
2021/05/31 09:18:51;;;;;;;8.90;6.38;;;;;;;-142.75;32.33;76215.97;5033744;28;20036;-73
2021/05/31 09:21:18;;;;;;;9.38;6.65;;;;;;;-142.75;34.87;76324.25;5033567;28;20036;-75
2021/05/31 09:23:45;;;;;;;9.68;5.95;;;;;;;-142.75;33.66;76278.97;5033843;28;20367;-73
2021/05/31 09:26:11;;;;;;;10.48;5.32;;;;;;;-142.75;34.27;76275.03;5033622;28;20032;-72
2021/05/31 09:28:37;;;;;;;14.05;5.72;;;;;;;-142.75;33.88;76245.50;5033660;28;20042;-74
2021/05/31 09:31:18;;;;;;;8.52;5.30;;;;;;;-142.75;30.97;76113.63;5016397;28;20116;-73
2021/05/31 09:33:44;;;;;;;8.32;5.55;;;;;;;-142.75;32.99;76223.84;5015873;28;20194;-73
2021/05/31 09:36:10;;;;;;;9.18;4.88;;;;;;;-142.75;32.56;76282.91;5015756;28;20521;-73
2021/05/31 09:38:49;;;;;;;9.10;6.32;;;;;;;-142.75;33.66;76304.56;5033553;28;20416;-73
2021/05/31 09:41:42;;;;;;;13.27;6.45;;;;;;;-142.75;32.80;76188.44;5033663;28;20445;-73
2021/05/31 09:44:09;;;;;;;9.98;6.18;;;;;;;-142.75;33.17;76180.56;4994946;28;20092;-74
2021/05/31 09:46:46;;;;;;;9.77;5.80;;;;;;;-142.75;32.57;76286.84;5012806;28;20526;-73
2021/05/31 09:49:22;;;;;;;7.45;5.00;;;;;;;-142.75;33.18;76090.00;5011941;28;20028;-73
2021/05/31 09:51:59;;;;;;;12.43;6.30;;;;;;;-142.75;31.72;76013.25;5030546;28;20501;-74
2021/05/31 09:54:25;;;;;;;8.85;5.90;;;;;;;-142.75;31.47;76196.31;5031468;28;20086;-73
2021/05/31 09:56:51;;;;;;;6.90;3.85;;;;;;;-142.75;30.08;76099.84;5031144;28;20021;-73
2021/05/31 09:59:19;;;;;;;8.30;3.97;;;;;;;-142.75;31.43;75967.97;5030069;28;20376;-73
2021/05/31 10:01:44;;;;;;;8.63;4.82;;;;;;;-142.75;30.00;75950.28;5031392;28;20033;-73
2021/05/31 10:04:32;;;;;;;7.43;4.22;;;;;;;-142.75;30.22;76056.56;5013357;28;20076;-74
2021/05/31 10:07:14;;;;;;;7.95;4.85;;;;;;;-142.75;30.24;75969.94;5030793;28;20041;-75
2021/05/31 10:09:39;;;;;;;7.95;5.15;;;;;;;-142.75;30.35;76133.31;5031503;28;20025;-73
2021/05/31 10:12:06;;;;;;;7.35;4.10;;;;;;;-142.75;30.61;76188.44;5031371;28;20108;-73
2021/05/31 10:14:32;;;;;;;6.53;4.55;;;;;;;-142.75;30.84;76223.84;5032360;28;20383;-74
2021/05/31 10:16:59;;;;;;;7.32;4.82;;;;;;;-142.75;30.77;76243.53;5032495;28;20021;-74
2021/05/31 10:19:26;;;;;;;8.88;4.55;;;;;;;-142.75;31.62;76184.50;5032564;28;20441;-73
2021/05/31 10:21:51;;;;;;;7.53;5.05;;;;;;;-142.75;31.19;76259.28;5032913;28;20021;-74
2021/05/31 10:24:16;;;;;;;12.95;4.93;;;;;;;-142.75;32.46;76275.03;5032554;28;20394;-73
2021/05/31 10:26:42;;;;;;;7.95;3.85;;;;;;;-142.75;31.25;76243.53;5014558;28;20032;-74
2021/05/31 10:29:08;;;;;;;6.68;4.10;;;;;;;-142.75;31.72;76257.31;5032643;28;20053;-74
2021/05/31 10:31:44;;;;;;;10.98;4.45;;;;;;;-142.75;32.49;76265.19;5032734;28;20029;-72
2021/05/31 10:34:20;;;;;;;15.18;4.97;;;;;;;-142.75;31.46;76223.84;5032776;28;20390;-73
2021/05/31 10:36:49;;;;;;;8.15;5.03;;;;;;;-142.75;31.76;76249.44;5032196;28;20021;-73
2021/05/31 10:39:22;;;;;;;6.38;4.43;;;;;;;-142.75;31.08;75993.56;5032328;28;20028;-73
2021/05/31 10:41:49;;;;;;;5.93;3.08;;;;;;;-142.75;29.25;75798.72;5032437;28;20108;-73
2021/05/31 10:44:18;;;;;;;6.18;2.90;;;;;;;-142.75;29.34;75708.19;5032092;28;20033;-73
2021/05/31 10:46:45;;;;;;;9.13;4.97;;;;;;;-142.75;29.37;76029.00;5014263;28;20064;-73
2021/05/31 10:49:18;;;;;;;6.45;4.70;;;;;;;-142.75;29.61;76013.25;5032306;28;20022;-74
2021/05/31 10:51:43;;;;;;;12.00;5.03;;;;;;;-142.75;30.82;76129.38;5032356;28;20108;-73
2021/05/31 10:54:15;;;;;;;9.45;5.05;;;;;;;-142.75;31.03;76056.56;5032086;28;20168;-73
2021/05/31 10:56:42;;;;;;;8.50;4.93;;;;;;;-142.75;28.40;75893.19;5031700;28;20059;-73
2021/05/31 10:59:08;;;;;;;7.88;4.05;;;;;;;-142.75;29.91;76062.47;5032133;28;20111;-74
2021/05/31 11:01:33;;;;;;;10.05;5.10;;;;;;;-142.75;29.97;76011.28;5031984;28;20479;-74
2021/05/31 11:04:06;;;;;;;10.13;5.57;;;;;;;-142.75;29.82;76095.91;5014388;28;20116;-74
2021/05/31 11:06:43;;;;;;;8.90;5.45;;;;;;;-142.75;31.15;76215.97;5031735;28;20030;-74
2021/05/31 11:09:09;;;;;;;9.18;5.88;;;;;;;-142.75;32.46;76241.56;5011467;28;20057;-73
2021/05/31 11:11:39;;;;;;;12.45;5.80;;;;;;;-142.75;31.72;76156.94;4994543;28;20113;-74
2021/05/31 11:14:06;;;;;;;9.70;6.43;;;;;;;-142.75;31.75;76273.06;5030879;28;20025;-73
2021/05/31 11:16:51;;;;;;;9.98;5.05;;;;;;;-142.75;31.70;76172.69;5013586;28;20501;-74
2021/05/31 11:19:16;;;;;;;13.27;6.03;;;;;;;-142.75;31.38;76091.97;5031631;28;20032;-74
2021/05/31 11:21:44;;;;;;;7.63;5.30;;;;;;;-142.75;32.82;75889.25;5015505;28;20022;-73
2021/05/31 11:24:16;;;;;;;11.77;5.93;;;;;;;-142.75;29.28;75897.13;5029486;28;20581;-74
2021/05/31 11:26:43;;;;;;;6.80;4.82;;;;;;;-142.75;30.25;76103.78;5013338;28;20025;-73